^^
Station Historical Data
Daily Summary for September 18, 2017 Units:  Both    English   Metric
« Previous Day
Next Day »
Daily Weekly Monthly Yearly Custom
  High: Low: Average:
Temperature: TemperatureF °F /  -17.8 °C 55.4 °F /  13 °C 74.1 °F /  23.4 °C
Dew Point: DewpointF °F /  -17.8 °C 9.3 °F /  -12.6 °C 18.4 °F /  -7.6 °C
Humidity: Humidity% 5% 13%
Wind Speed: WindSpeedMPHmph /  0km/h - 1.6mph /  2.6km/h
Wind Gust: WindSpeedGustMPHmph /  0km/h - -
Wind- - SSW
Pressure: PressureIn in /  0 hPa 29.75 in /  1007.3 hPa -
Precipitation: 0.00 in /  0 mm    
Historical Graphs
 
 
Tabular Data for September 18, 2017
Time Temperature Dew Point Pressure Wind Wind Speed Wind Gust Humidity Rainfall Rate (Hourly) solar Conditions
TemperatureF °F /  -17.8 °C DewpointF °F /  -17.8 °C PressureInin /  0hPa Calm     Humidity% HourlyPrecipInin /  0mm SolarRadiationWatts/m^2 W/m2 Conditions
00:00 64.9 °F /  18.3 °C 14.5 °F /  -9.7 °C 29.85in /  1010.7hPa Calm     14% 0.00in /  0mm 0.0 W/m2
00:06 64.6 °F /  18.1 °C 14.4 °F /  -9.8 °C 29.85in /  1010.7hPa Calm     14% 0.00in /  0mm 0.0 W/m2
00:12 64.2 °F /  17.9 °C 15.6 °F /  -9.1 °C 29.85in /  1010.7hPa Calm     15% 0.00in /  0mm 0.0 W/m2
00:18 64.0 °F /  17.8 °C 15.4 °F /  -9.2 °C 29.85in /  1010.7hPa Calm     15% 0.00in /  0mm 0.0 W/m2
00:24 63.7 °F /  17.6 °C 15.1 °F /  -9.4 °C 29.84in /  1010.4hPa Calm     15% 0.00in /  0mm 0.0 W/m2
00:30 63.5 °F /  17.5 °C 11.8 °F /  -11.2 °C 29.84in /  1010.4hPa Calm     13% 0.00in /  0mm 0.0 W/m2
00:36 63.3 °F /  17.4 °C 11.7 °F /  -11.3 °C 29.84in /  1010.4hPa Calm   1.0mph /  1.6km/h 13% 0.00in /  0mm 0.0 W/m2
00:43 63.3 °F /  17.4 °C 13.3 °F /  -10.4 °C 29.84in /  1010.4hPa Calm     14% 0.00in /  0mm 0.0 W/m2
00:49 63.1 °F /  17.3 °C 13.1 °F /  -10.5 °C 29.84in /  1010.4hPa Calm     14% 0.00in /  0mm 0.0 W/m2
00:55 63.3 °F /  17.4 °C 13.3 °F /  -10.4 °C 29.84in /  1010.4hPa Calm   1.0mph /  1.6km/h 14% 0.00in /  0mm 0.0 W/m2
01:01 63.3 °F /  17.4 °C 13.3 °F /  -10.4 °C 29.84in /  1010.4hPa Calm   2.0mph /  3.2km/h 14% 0.00in /  0mm 0.0 W/m2
01:07 63.5 °F /  17.5 °C 13.5 °F /  -10.3 °C 29.84in /  1010.4hPa Calm     14% 0.00in /  0mm 0.0 W/m2
01:13 63.5 °F /  17.5 °C 13.5 °F /  -10.3 °C 29.84in /  1010.4hPa Calm   1.0mph /  1.6km/h 14% 0.00in /  0mm 0.0 W/m2
01:19 63.5 °F /  17.5 °C 13.5 °F /  -10.3 °C 29.84in /  1010.4hPa Calm     14% 0.00in /  0mm 0.0 W/m2
01:25 63.7 °F /  17.6 °C 13.6 °F /  -10.2 °C 29.83in /  1010hPa Calm     14% 0.00in /  0mm 0.0 W/m2
01:31 63.7 °F /  17.6 °C 13.6 °F /  -10.2 °C 29.83in /  1010hPa ESE 0.9mph /  1.4km/h 1.0mph /  1.6km/h 14% 0.00in /  0mm 0.0 W/m2
01:38 63.9 °F /  17.7 °C 13.6 °F /  -10.2 °C 29.83in /  1010hPa Calm     14% 0.00in /  0mm 0.0 W/m2
01:44 63.9 °F /  17.7 °C 13.6 °F /  -10.2 °C 29.83in /  1010hPa Calm     14% 0.00in /  0mm 0.0 W/m2
01:50 63.9 °F /  17.7 °C 13.6 °F /  -10.2 °C 29.83in /  1010hPa Calm   1.0mph /  1.6km/h 14% 0.00in /  0mm 0.0 W/m2
01:56 63.7 °F /  17.6 °C 13.6 °F /  -10.2 °C 29.83in /  1010hPa East 2.0mph /  3.2km/h 3.0mph /  4.8km/h 14% 0.00in /  0mm 0.0 W/m2
02:02 63.5 °F /  17.5 °C 13.5 °F /  -10.3 °C 29.83in /  1010hPa ESE 0.9mph /  1.4km/h 1.0mph /  1.6km/h 14% 0.00in /  0mm 0.0 W/m2
02:08 63.3 °F /  17.4 °C 13.3 °F /  -10.4 °C 29.83in /  1010hPa Calm   1.0mph /  1.6km/h 14% 0.00in /  0mm 0.0 W/m2
02:15 63.3 °F /  17.4 °C 13.3 °F /  -10.4 °C 29.83in /  1010hPa ENE 0.9mph /  1.4km/h 1.0mph /  1.6km/h 14% 0.00in /  0mm 0.0 W/m2
02:21 63.3 °F /  17.4 °C 13.3 °F /  -10.4 °C 29.83in /  1010hPa East 0.9mph /  1.4km/h 3.0mph /  4.8km/h 14% 0.00in /  0mm 0.0 W/m2
02:27 63.7 °F /  17.6 °C 13.6 °F /  -10.2 °C 29.83in /  1010hPa Calm     14% 0.00in /  0mm 0.0 W/m2
02:33 63.7 °F /  17.6 °C 13.6 °F /  -10.2 °C 29.83in /  1010hPa Calm     14% 0.00in /  0mm 0.0 W/m2
02:39 63.7 °F /  17.6 °C 13.6 °F /  -10.2 °C 29.83in /  1010hPa Calm     14% 0.00in /  0mm 0.0 W/m2
02:45 63.7 °F /  17.6 °C 13.6 °F /  -10.2 °C 29.83in /  1010hPa Calm   2.0mph /  3.2km/h 14% 0.00in /  0mm 0.0 W/m2
02:51 63.7 °F /  17.6 °C 13.6 °F /  -10.2 °C 29.83in /  1010hPa Calm   1.0mph /  1.6km/h 14% 0.00in /  0mm 0.0 W/m2
02:57 63.7 °F /  17.6 °C 13.6 °F /  -10.2 °C 29.83in /  1010hPa Calm   2.0mph /  3.2km/h 14% 0.00in /  0mm 0.0 W/m2
03:04 63.3 °F /  17.4 °C 13.3 °F /  -10.4 °C 29.82in /  1009.7hPa Calm   3.0mph /  4.8km/h 14% 0.00in /  0mm 0.0 W/m2
03:10 63.1 °F /  17.3 °C 13.1 °F /  -10.5 °C 29.83in /  1010hPa Calm   1.0mph /  1.6km/h 14% 0.00in /  0mm 0.0 W/m2
03:16 63.0 °F /  17.2 °C 14.5 °F /  -9.7 °C 29.82in /  1009.7hPa Calm     15% 0.00in /  0mm 0.0 W/m2
03:22 62.4 °F /  16.9 °C 14.2 °F /  -9.9 °C 29.82in /  1009.7hPa Calm     15% 0.00in /  0mm 0.0 W/m2
03:28 61.9 °F /  16.6 °C 15.3 °F /  -9.3 °C 29.82in /  1009.7hPa Calm     16% 0.00in /  0mm 0.0 W/m2
03:34 61.2 °F /  16.2 °C 14.5 °F /  -9.7 °C 29.82in /  1009.7hPa Calm     16% 0.00in /  0mm 0.0 W/m2
03:41 60.6 °F /  15.9 °C 15.6 °F /  -9.1 °C 29.82in /  1009.7hPa Calm   1.0mph /  1.6km/h 17% 0.00in /  0mm 0.0 W/m2
03:47 60.1 °F /  15.6 °C 13.6 °F /  -10.2 °C 29.82in /  1009.7hPa Calm   2.0mph /  3.2km/h 16% 0.00in /  0mm 0.0 W/m2
03:53 59.7 °F /  15.4 °C 13.5 °F /  -10.3 °C 29.82in /  1009.7hPa Calm     16% 0.00in /  0mm 0.0 W/m2
03:59 59.5 °F /  15.3 °C 13.3 °F /  -10.4 °C 29.82in /  1009.7hPa Calm     16% 0.00in /  0mm 0.0 W/m2
04:05 59.5 °F /  15.3 °C 13.3 °F /  -10.4 °C 29.82in /  1009.7hPa Calm     16% 0.00in /  0mm 0.0 W/m2
04:11 59.2 °F /  15.1 °C 12.9 °F /  -10.6 °C 29.82in /  1009.7hPa Calm     16% 0.00in /  0mm 0.0 W/m2
04:17 58.8 °F /  14.9 °C 12.7 °F /  -10.7 °C 29.82in /  1009.7hPa Calm     16% 0.00in /  0mm 0.0 W/m2
04:23 58.8 °F /  14.9 °C 14.0 °F /  -10 °C 29.82in /  1009.7hPa Calm     17% 0.00in /  0mm 0.0 W/m2
04:30 58.6 °F /  14.8 °C 14.0 °F /  -10 °C 29.82in /  1009.7hPa Calm     17% 0.00in /  0mm 0.0 W/m2
04:36 58.5 °F /  14.7 °C 13.8 °F /  -10.1 °C 29.82in /  1009.7hPa Calm   1.0mph /  1.6km/h 17% 0.00in /  0mm 0.0 W/m2
04:42 58.5 °F /  14.7 °C 12.4 °F /  -10.9 °C 29.82in /  1009.7hPa Calm     16% 0.00in /  0mm 0.0 W/m2
04:48 58.5 °F /  14.7 °C 12.4 °F /  -10.9 °C 29.82in /  1009.7hPa Calm   1.0mph /  1.6km/h 16% 0.00in /  0mm 0.0 W/m2
04:54 58.5 °F /  14.7 °C 10.9 °F /  -11.7 °C 29.82in /  1009.7hPa Calm   2.0mph /  3.2km/h 15% 0.00in /  0mm 0.0 W/m2
05:00 58.6 °F /  14.8 °C 11.1 °F /  -11.6 °C 29.82in /  1009.7hPa Calm   1.0mph /  1.6km/h 15% 0.00in /  0mm 0.0 W/m2
05:06 58.6 °F /  14.8 °C 11.1 °F /  -11.6 °C 29.82in /  1009.7hPa Calm     15% 0.00in /  0mm 0.0 W/m2
05:17 58.8 °F /  14.9 °C 11.3 °F /  -11.5 °C 29.83in /  1010hPa Calm     15% 0.00in /  0mm 0.0 W/m2
05:23 58.6 °F /  14.8 °C 12.6 °F /  -10.8 °C 29.83in /  1010hPa Calm   1.0mph /  1.6km/h 16% 0.00in /  0mm 0.0 W/m2
05:29 58.5 °F /  14.7 °C 12.4 °F /  -10.9 °C 29.84in /  1010.4hPa Calm     16% 0.00in /  0mm 0.0 W/m2
05:35 58.3 °F /  14.6 °C 10.8 °F /  -11.8 °C 29.84in /  1010.4hPa Calm   3.0mph /  4.8km/h 15% 0.00in /  0mm 0.0 W/m2
05:41 58.3 °F /  14.6 °C 10.8 °F /  -11.8 °C 29.84in /  1010.4hPa Calm     15% 0.00in /  0mm 0.0 W/m2
05:47 58.3 °F /  14.6 °C 12.2 °F /  -11 °C 29.84in /  1010.4hPa Calm     16% 0.00in /  0mm 0.0 W/m2
05:53 57.9 °F /  14.4 °C 13.3 °F /  -10.4 °C 29.85in /  1010.7hPa Calm     17% 0.00in /  0mm 0.0 W/m2
05:59 57.7 °F /  14.3 °C 13.3 °F /  -10.4 °C 29.85in /  1010.7hPa Calm   1.0mph /  1.6km/h 17% 0.00in /  0mm 0.0 W/m2
06:01 57.6 °F /  14.2 °C 13.1 °F /  -10.5 °C 29.85in /  1010.7hPa Calm   1.0mph /  1.6km/h 17% 0.00in /  0mm 0.0 W/m2
06:08 57.4 °F /  14.1 °C 11.5 °F /  -11.4 °C 29.85in /  1010.7hPa Calm   1.0mph /  1.6km/h 16% 0.00in /  0mm 0.0 W/m2
06:14 57.0 °F /  13.9 °C 11.3 °F /  -11.5 °C 29.85in /  1010.7hPa Calm     16% 0.00in /  0mm 0.0 W/m2
06:20 57.0 °F /  13.9 °C 12.6 °F /  -10.8 °C 29.85in /  1010.7hPa Calm     17% 0.00in /  0mm 0.0 W/m2
06:26 57.0 °F /  13.9 °C 12.6 °F /  -10.8 °C 29.85in /  1010.7hPa Calm     17% 0.00in /  0mm 0.0 W/m2
06:32 56.7 °F /  13.7 °C 12.4 °F /  -10.9 °C 29.85in /  1010.7hPa Calm     17% 0.00in /  0mm 0.0 W/m2
06:38 56.5 °F /  13.6 °C 12.2 °F /  -11 °C 29.86in /  1011.1hPa Calm     17% 0.00in /  0mm 0.0 W/m2
06:44 56.1 °F /  13.4 °C 13.1 °F /  -10.5 °C 29.86in /  1011.1hPa Calm     18% 0.00in /  0mm 0.0 W/m2
06:50 55.9 °F /  13.3 °C 11.7 °F /  -11.3 °C 29.86in /  1011.1hPa Calm   1.0mph /  1.6km/h 17% 0.00in /  0mm 5.0 W/m2
06:57 55.8 °F /  13.2 °C 11.7 °F /  -11.3 °C 29.86in /  1011.1hPa Calm     17% 0.00in /  0mm 9.0 W/m2
07:03 55.6 °F /  13.1 °C 12.7 °F /  -10.7 °C 29.87in /  1011.4hPa Calm     18% 0.00in /  0mm 14.0 W/m2
07:09 55.4 °F /  13 °C 12.6 °F /  -10.8 °C 29.87in /  1011.4hPa Calm   1.0mph /  1.6km/h 18% 0.00in /  0mm 18.0 W/m2
07:15 55.8 °F /  13.2 °C 12.9 °F /  -10.6 °C 29.87in /  1011.4hPa Calm   1.0mph /  1.6km/h 18% 0.00in /  0mm 23.0 W/m2
07:21 56.5 °F /  13.6 °C 13.5 °F /  -10.3 °C 29.88in /  1011.7hPa Calm   3.0mph /  4.8km/h 18% 0.00in /  0mm 28.0 W/m2
07:27 57.4 °F /  14.1 °C 12.9 °F /  -10.6 °C 29.88in /  1011.7hPa Calm   1.0mph /  1.6km/h 17% 0.00in /  0mm 32.0 W/m2
07:34 58.1 °F /  14.5 °C 13.5 °F /  -10.3 °C 29.88in /  1011.7hPa East 0.9mph /  1.4km/h 1.0mph /  1.6km/h 17% 0.00in /  0mm 37.0 W/m2
07:40 58.8 °F /  14.9 °C 15.4 °F /  -9.2 °C 29.88in /  1011.7hPa Calm   1.0mph /  1.6km/h 18% 0.00in /  0mm 40.0 W/m2
07:46 59.4 °F /  15.2 °C 14.5 °F /  -9.7 °C 29.88in /  1011.7hPa Calm   2.0mph /  3.2km/h 17% 0.00in /  0mm 44.0 W/m2
07:52 60.1 °F /  15.6 °C 15.1 °F /  -9.4 °C 29.88in /  1011.7hPa Calm     17% 0.00in /  0mm 49.0 W/m2
07:58 61.0 °F /  16.1 °C 17.2 °F /  -8.2 °C 29.88in /  1011.7hPa Calm   1.0mph /  1.6km/h 18% 0.00in /  0mm 53.0 W/m2
08:04 61.7 °F /  16.5 °C 17.8 °F /  -7.9 °C 29.88in /  1011.7hPa Calm     18% 0.00in /  0mm 56.0 W/m2
08:10 62.4 °F /  16.9 °C 17.1 °F /  -8.3 °C 29.89in /  1012.1hPa Calm     17% 0.00in /  0mm 58.0 W/m2
08:16 63.3 °F /  17.4 °C 22.6 °F /  -5.2 °C 29.89in /  1012.1hPa ESE 0.9mph /  1.4km/h 3.0mph /  4.8km/h 21% 0.00in /  0mm 67.0 W/m2
08:23 64.8 °F /  18.2 °C 23.9 °F /  -4.5 °C 29.89in /  1012.1hPa Calm   5.0mph /  8km/h 21% 0.00in /  0mm 65.0 W/m2
08:29 66.0 °F /  18.9 °C 25.0 °F /  -3.9 °C 29.89in /  1012.1hPa ESE 0.9mph /  1.4km/h 4.0mph /  6.4km/h 21% 0.00in /  0mm 69.0 W/m2
08:35 67.5 °F /  19.7 °C 26.2 °F /  -3.2 °C 29.89in /  1012.1hPa ENE 2.0mph /  3.2km/h 3.0mph /  4.8km/h 21% 0.00in /  0mm 72.0 W/m2
08:41 68.4 °F /  20.2 °C 27.0 °F /  -2.8 °C 29.89in /  1012.1hPa Calm   4.0mph /  6.4km/h 21% 0.00in /  0mm 74.0 W/m2
08:47 69.6 °F /  20.9 °C 27.9 °F /  -2.3 °C 29.89in /  1012.1hPa Calm   7.0mph /  11.3km/h 21% 0.00in /  0mm 77.0 W/m2
08:53 70.5 °F /  21.4 °C 27.5 °F /  -2.5 °C 29.89in /  1012.1hPa Calm   4.0mph /  6.4km/h 20% 0.00in /  0mm 84.0 W/m2
08:59 71.2 °F /  21.8 °C 26.8 °F /  -2.9 °C 29.89in /  1012.1hPa Calm   5.0mph /  8km/h 19% 0.00in /  0mm 81.0 W/m2
09:05 72.0 °F /  22.2 °C 27.5 °F /  -2.5 °C 29.89in /  1012.1hPa ENE 0.9mph /  1.4km/h 4.0mph /  6.4km/h 19% 0.00in /  0mm 83.0 W/m2
09:12 72.7 °F /  22.6 °C 26.8 °F /  -2.9 °C 29.88in /  1011.7hPa Calm   3.0mph /  4.8km/h 18% 0.00in /  0mm 86.0 W/m2
09:18 73.6 °F /  23.1 °C 27.5 °F /  -2.5 °C 29.88in /  1011.7hPa East 2.9mph /  4.7km/h 3.0mph /  4.8km/h 18% 0.00in /  0mm 88.0 W/m2
09:24 74.1 °F /  23.4 °C 27.9 °F /  -2.3 °C 29.88in /  1011.7hPa Calm   3.0mph /  4.8km/h 18% 0.00in /  0mm 91.0 W/m2
09:30 74.8 °F /  23.8 °C 27.1 °F /  -2.7 °C 29.88in /  1011.7hPa Calm   4.0mph /  6.4km/h 17% 0.00in /  0mm 95.0 W/m2
09:36 75.6 °F /  24.2 °C 26.2 °F /  -3.2 °C 29.88in /  1011.7hPa East 2.0mph /  3.2km/h 4.0mph /  6.4km/h 16% 0.00in /  0mm 135.0 W/m2
09:42 76.3 °F /  24.6 °C 25.2 °F /  -3.8 °C 29.88in /  1011.7hPa NNE 2.9mph /  4.7km/h 4.0mph /  6.4km/h 15% 0.00in /  0mm 536.0 W/m2
09:48 77.5 °F /  25.3 °C 24.6 °F /  -4.1 °C 29.88in /  1011.7hPa NNE 2.0mph /  3.2km/h 5.0mph /  8km/h 14% 0.00in /  0mm 559.0 W/m2
09:55 78.6 °F /  25.9 °C 23.7 °F /  -4.6 °C 29.88in /  1011.7hPa NNE 0.9mph /  1.4km/h 4.0mph /  6.4km/h 13% 0.00in /  0mm 573.0 W/m2
10:01 79.7 °F /  26.5 °C 20.5 °F /  -6.4 °C 29.88in /  1011.7hPa North 0.9mph /  1.4km/h 1.0mph /  1.6km/h 11% 0.00in /  0mm 591.0 W/m2
10:07 80.8 °F /  27.1 °C 21.4 °F /  -5.9 °C 29.88in /  1011.7hPa Calm   1.0mph /  1.6km/h 11% 0.00in /  0mm 612.0 W/m2
10:13 81.5 °F /  27.5 °C 19.8 °F /  -6.8 °C 29.88in /  1011.7hPa Calm   2.0mph /  3.2km/h 10% 0.00in /  0mm 626.0 W/m2
10:19 81.9 °F /  27.7 °C 17.4 °F /  -8.1 °C 29.87in /  1011.4hPa Calm   2.0mph /  3.2km/h 9% 0.00in /  0mm 645.0 W/m2
10:25 82.0 °F /  27.8 °C 14.9 °F /  -9.5 °C 29.87in /  1011.4hPa South 0.9mph /  1.4km/h 2.0mph /  3.2km/h 8% 0.00in /  0mm 663.0 W/m2
10:31 82.4 °F /  28 °C 15.3 °F /  -9.3 °C 29.87in /  1011.4hPa Calm   2.0mph /  3.2km/h 8% 0.00in /  0mm 680.0 W/m2
10:37 82.9 °F /  28.3 °C 15.6 °F /  -9.1 °C 29.87in /  1011.4hPa NNE 2.0mph /  3.2km/h 3.0mph /  4.8km/h 8% 0.00in /  0mm 689.0 W/m2
10:44 83.7 °F /  28.7 °C 16.2 °F /  -8.8 °C 29.87in /  1011.4hPa SE 2.0mph /  3.2km/h 2.0mph /  3.2km/h 8% 0.00in /  0mm 703.0 W/m2
10:50 84.2 °F /  29 °C 13.5 °F /  -10.3 °C 29.86in /  1011.1hPa WSW 2.0mph /  3.2km/h 3.0mph /  4.8km/h 7% 0.00in /  0mm 715.0 W/m2
10:56 84.7 °F /  29.3 °C 13.8 °F /  -10.1 °C 29.86in /  1011.1hPa Calm   2.0mph /  3.2km/h 7% 0.00in /  0mm 737.0 W/m2
11:02 85.8 °F /  29.9 °C 14.7 °F /  -9.6 °C 29.86in /  1011.1hPa Calm   2.0mph /  3.2km/h 7% 0.00in /  0mm 751.0 W/m2
11:08 86.4 °F /  30.2 °C 11.5 °F /  -11.4 °C 29.86in /  1011.1hPa Calm   1.0mph /  1.6km/h 6% 0.00in /  0mm 765.0 W/m2
11:14 87.1 °F /  30.6 °C 12.0 °F /  -11.1 °C 29.85in /  1010.7hPa Calm   3.0mph /  4.8km/h 6% 0.00in /  0mm 784.0 W/m2
11:20 87.3 °F /  30.7 °C 12.2 °F /  -11 °C 29.85in /  1010.7hPa West 0.9mph /  1.4km/h 7.0mph /  11.3km/h 6% 0.00in /  0mm 791.0 W/m2
11:27 87.4 °F /  30.8 °C 12.4 °F /  -10.9 °C 29.85in /  1010.7hPa Calm   2.0mph /  3.2km/h 6% 0.00in /  0mm 819.0 W/m2
11:33 88.0 °F /  31.1 °C 12.7 °F /  -10.7 °C 29.85in /  1010.7hPa WNW 0.9mph /  1.4km/h 2.0mph /  3.2km/h 6% 0.00in /  0mm 812.0 W/m2
11:39 88.5 °F /  31.4 °C 13.1 °F /  -10.5 °C 29.84in /  1010.4hPa WSW 0.9mph /  1.4km/h 4.0mph /  6.4km/h 6% 0.00in /  0mm 828.0 W/m2
11:45 88.9 °F /  31.6 °C 9.3 °F /  -12.6 °C 29.84in /  1010.4hPa NE 2.9mph /  4.7km/h 4.0mph /  6.4km/h 5% 0.00in /  0mm 809.0 W/m2
11:51 88.9 °F /  31.6 °C 9.3 °F /  -12.6 °C 29.85in /  1010.7hPa WSW 10.1mph /  16.3km/h 10.1mph /  16.3km/h 5% 0.00in /  0mm 828.0 W/m2
11:57 88.9 °F /  31.6 °C 22.8 °F /  -5.1 °C 29.84in /  1010.4hPa SW 2.0mph /  3.2km/h 5.0mph /  8km/h 9% 0.00in /  0mm 803.0 W/m2
12:03 88.3 °F /  31.3 °C 27.1 °F /  -2.7 °C 29.84in /  1010.4hPa South 10.1mph /  16.3km/h 15.0mph /  24.1km/h 11% 0.00in /  0mm 821.0 W/m2
12:09 88.0 °F /  31.1 °C 24.6 °F /  -4.1 °C 29.84in /  1010.4hPa WSW 4.9mph /  7.9km/h 10.0mph /  16.1km/h 10% 0.00in /  0mm 828.0 W/m2
12:16 88.2 °F /  31.2 °C 29.1 °F /  -1.6 °C 29.83in /  1010hPa WSW 11.0mph /  17.7km/h 14.0mph /  22.5km/h 12% 0.00in /  0mm 823.0 W/m2
12:22 88.2 °F /  31.2 °C 27.0 °F /  -2.8 °C 29.83in /  1010hPa NW 2.0mph /  3.2km/h 10.0mph /  16.1km/h 11% 0.00in /  0mm 849.0 W/m2
12:28 88.3 °F /  31.3 °C 29.3 °F /  -1.5 °C 29.82in /  1009.7hPa West 2.9mph /  4.7km/h 13.0mph /  20.9km/h 12% 0.00in /  0mm 846.0 W/m2
12:34 88.5 °F /  31.4 °C 29.5 °F /  -1.4 °C 29.82in /  1009.7hPa NNW 0.9mph /  1.4km/h 8.0mph /  12.9km/h 12% 0.00in /  0mm 844.0 W/m2
12:40 89.1 °F /  31.7 °C 27.7 °F /  -2.4 °C 29.82in /  1009.7hPa WSW 13.0mph /  20.9km/h 13.0mph /  20.9km/h 11% 0.00in /  0mm 847.0 W/m2
12:46 88.7 °F /  31.5 °C 27.5 °F /  -2.5 °C 29.82in /  1009.7hPa WNW 8.9mph /  14.3km/h 10.0mph /  16.1km/h 11% 0.00in /  0mm 835.0 W/m2
12:52 88.9 °F /  31.6 °C 27.5 °F /  -2.5 °C 29.81in /  1009.4hPa West 10.1mph /  16.3km/h 15.0mph /  24.1km/h 11% 0.00in /  0mm 846.0 W/m2
12:58 89.1 °F /  31.7 °C 25.3 °F /  -3.7 °C 29.81in /  1009.4hPa SE 2.0mph /  3.2km/h 10.0mph /  16.1km/h 10% 0.00in /  0mm 833.0 W/m2
13:05 89.1 °F /  31.7 °C 27.7 °F /  -2.4 °C 29.80in /  1009hPa NNE 0.9mph /  1.4km/h 13.0mph /  20.9km/h 11% 0.00in /  0mm 837.0 W/m2
13:11 89.2 °F /  31.8 °C 25.5 °F /  -3.6 °C 29.80in /  1009hPa WNW 0.9mph /  1.4km/h 11.0mph /  17.7km/h 10% 0.00in /  0mm 830.0 W/m2
13:17 89.4 °F /  31.9 °C 25.7 °F /  -3.5 °C 29.80in /  1009hPa WNW 6.9mph /  11.1km/h 12.0mph /  19.3km/h 10% 0.00in /  0mm 824.0 W/m2
13:23 89.8 °F /  32.1 °C 25.9 °F /  -3.4 °C 29.80in /  1009hPa Calm   8.0mph /  12.9km/h 10% 0.00in /  0mm 817.0 W/m2
13:29 90.1 °F /  32.3 °C 26.2 °F /  -3.2 °C 29.80in /  1009hPa SW 0.9mph /  1.4km/h 10.0mph /  16.1km/h 10% 0.00in /  0mm 810.0 W/m2
13:35 89.6 °F /  32 °C 25.9 °F /  -3.4 °C 29.80in /  1009hPa WSW 8.9mph /  14.3km/h 14.0mph /  22.5km/h 10% 0.00in /  0mm 805.0 W/m2
13:41 89.4 °F /  31.9 °C 25.7 °F /  -3.5 °C 29.79in /  1008.7hPa West 2.0mph /  3.2km/h 4.0mph /  6.4km/h 10% 0.00in /  0mm 807.0 W/m2
13:47 90.0 °F /  32.2 °C 26.1 °F /  -3.3 °C 29.79in /  1008.7hPa SW 2.9mph /  4.7km/h 16.0mph /  25.7km/h 10% 0.00in /  0mm 800.0 W/m2
13:54 90.0 °F /  32.2 °C 23.5 °F /  -4.7 °C 29.79in /  1008.7hPa WSW 4.0mph /  6.4km/h 12.0mph /  19.3km/h 9% 0.00in /  0mm 798.0 W/m2
14:00 90.0 °F /  32.2 °C 23.5 °F /  -4.7 °C 29.79in /  1008.7hPa WSW 4.0mph /  6.4km/h 13.0mph /  20.9km/h 9% 0.00in /  0mm 788.0 W/m2
14:06 90.1 °F /  32.3 °C 26.2 °F /  -3.2 °C 29.78in /  1008.4hPa SE 2.9mph /  4.7km/h 8.0mph /  12.9km/h 10% 0.00in /  0mm 765.0 W/m2
14:12 90.5 °F /  32.5 °C 23.9 °F /  -4.5 °C 29.78in /  1008.4hPa West 4.9mph /  7.9km/h 15.0mph /  24.1km/h 9% 0.00in /  0mm 756.0 W/m2
14:18 90.0 °F /  32.2 °C 23.5 °F /  -4.7 °C 29.78in /  1008.4hPa WSW 4.0mph /  6.4km/h 9.0mph /  14.5km/h 9% 0.00in /  0mm 766.0 W/m2
14:24 90.0 °F /  32.2 °C 20.8 °F /  -6.2 °C 29.78in /  1008.4hPa WSW 8.1mph /  13km/h 16.0mph /  25.7km/h 8% 0.00in /  0mm 742.0 W/m2
14:30 89.8 °F /  32.1 °C 23.4 °F /  -4.8 °C 29.78in /  1008.4hPa WSW 10.1mph /  16.3km/h 14.0mph /  22.5km/h 9% 0.00in /  0mm 722.0 W/m2
14:37 89.8 °F /  32.1 °C 23.4 °F /  -4.8 °C 29.78in /  1008.4hPa SSW 6.0mph /  9.7km/h 13.0mph /  20.9km/h 9% 0.00in /  0mm 708.0 W/m2
14:39 89.8 °F /  32.1 °C 23.4 °F /  -4.8 °C 29.78in /  1008.4hPa West 2.9mph /  4.7km/h 9.0mph /  14.5km/h 9% 0.00in /  0mm 707.0 W/m2
14:45 90.0 °F /  32.2 °C 23.5 °F /  -4.7 °C 29.77in /  1008hPa SSW 6.0mph /  9.7km/h 12.0mph /  19.3km/h 9% 0.00in /  0mm 694.0 W/m2
14:51 90.1 °F /  32.3 °C 23.7 °F /  -4.6 °C 29.77in /  1008hPa SW 4.0mph /  6.4km/h 11.0mph /  17.7km/h 9% 0.00in /  0mm 675.0 W/m2
14:57 90.3 °F /  32.4 °C 23.9 °F /  -4.5 °C 29.77in /  1008hPa WSW 0.9mph /  1.4km/h 11.0mph /  17.7km/h 9% 0.00in /  0mm 664.0 W/m2
15:03 90.3 °F /  32.4 °C 23.9 °F /  -4.5 °C 29.77in /  1008hPa West 6.0mph /  9.7km/h 14.0mph /  22.5km/h 9% 0.00in /  0mm 647.0 W/m2
15:09 90.1 °F /  32.3 °C 23.7 °F /  -4.6 °C 29.77in /  1008hPa SSW 6.0mph /  9.7km/h 11.0mph /  17.7km/h 9% 0.00in /  0mm 633.0 W/m2
15:15 90.1 °F /  32.3 °C 23.7 °F /  -4.6 °C 29.77in /  1008hPa SW 8.1mph /  13km/h 14.0mph /  22.5km/h 9% 0.00in /  0mm 619.0 W/m2
15:21 90.0 °F /  32.2 °C 23.5 °F /  -4.7 °C 29.77in /  1008hPa WSW 2.0mph /  3.2km/h 11.0mph /  17.7km/h 9% 0.00in /  0mm 601.0 W/m2
15:28 90.0 °F /  32.2 °C 23.5 °F /  -4.7 °C 29.77in /  1008hPa WSW 2.0mph /  3.2km/h 10.0mph /  16.1km/h 9% 0.00in /  0mm 571.0 W/m2
15:34 90.1 °F /  32.3 °C 23.7 °F /  -4.6 °C 29.76in /  1007.7hPa WNW 6.9mph /  11.1km/h 12.0mph /  19.3km/h 9% 0.00in /  0mm 564.0 W/m2
15:40 90.1 °F /  32.3 °C 23.7 °F /  -4.6 °C 29.77in /  1008hPa West 6.9mph /  11.1km/h 21.0mph /  33.8km/h 9% 0.00in /  0mm 540.0 W/m2
15:46 90.1 °F /  32.3 °C 23.7 °F /  -4.6 °C 29.76in /  1007.7hPa West 8.1mph /  13km/h 12.0mph /  19.3km/h 9% 0.00in /  0mm 517.0 W/m2
15:52 90.1 °F /  32.3 °C 23.7 °F /  -4.6 °C 29.76in /  1007.7hPa West 15.0mph /  24.1km/h 15.0mph /  24.1km/h 9% 0.00in /  0mm 503.0 W/m2
15:58 89.8 °F /  32.1 °C 23.4 °F /  -4.8 °C 29.77in /  1008hPa WSW 2.9mph /  4.7km/h 8.0mph /  12.9km/h 9% 0.00in /  0mm 478.0 W/m2
16:04 90.0 °F /  32.2 °C 23.5 °F /  -4.7 °C 29.76in /  1007.7hPa SSE 4.9mph /  7.9km/h 8.0mph /  12.9km/h 9% 0.00in /  0mm 455.0 W/m2
16:10 90.1 °F /  32.3 °C 23.7 °F /  -4.6 °C 29.76in /  1007.7hPa WSW 8.1mph /  13km/h 14.0mph /  22.5km/h 9% 0.00in /  0mm 429.0 W/m2
16:17 89.4 °F /  31.9 °C 23.2 °F /  -4.9 °C 29.76in /  1007.7hPa SSE 2.9mph /  4.7km/h 9.0mph /  14.5km/h 9% 0.00in /  0mm 422.0 W/m2
16:23 89.4 °F /  31.9 °C 23.2 °F /  -4.9 °C 29.76in /  1007.7hPa SW 6.9mph /  11.1km/h 10.0mph /  16.1km/h 9% 0.00in /  0mm 403.0 W/m2
16:29 89.2 °F /  31.8 °C 25.5 °F /  -3.6 °C 29.76in /  1007.7hPa WSW 6.9mph /  11.1km/h 10.0mph /  16.1km/h 10% 0.00in /  0mm 376.0 W/m2
16:35 89.1 °F /  31.7 °C 22.8 °F /  -5.1 °C 29.76in /  1007.7hPa SSW 4.0mph /  6.4km/h 13.0mph /  20.9km/h 9% 0.00in /  0mm 357.0 W/m2
16:41 89.1 °F /  31.7 °C 20.1 °F /  -6.6 °C 29.75in /  1007.3hPa SW 2.9mph /  4.7km/h 12.0mph /  19.3km/h 8% 0.00in /  0mm 334.0 W/m2
16:47 89.1 °F /  31.7 °C 22.8 °F /  -5.1 °C 29.76in /  1007.7hPa West 8.9mph /  14.3km/h 10.0mph /  16.1km/h 9% 0.00in /  0mm 313.0 W/m2
16:53 89.1 °F /  31.7 °C 22.8 °F /  -5.1 °C 29.76in /  1007.7hPa WSW 4.0mph /  6.4km/h 9.0mph /  14.5km/h 9% 0.00in /  0mm 302.0 W/m2
16:59 88.9 °F /  31.6 °C 22.8 °F /  -5.1 °C 29.76in /  1007.7hPa SW 4.9mph /  7.9km/h 10.0mph /  16.1km/h 9% 0.00in /  0mm 279.0 W/m2
17:05 88.9 °F /  31.6 °C 22.8 °F /  -5.1 °C 29.76in /  1007.7hPa Calm   9.0mph /  14.5km/h 9% 0.00in /  0mm 257.0 W/m2
17:11 88.9 °F /  31.6 °C 22.8 °F /  -5.1 °C 29.76in /  1007.7hPa SW 4.9mph /  7.9km/h 8.0mph /  12.9km/h 9% 0.00in /  0mm 236.0 W/m2
17:17 88.7 °F /  31.5 °C 22.6 °F /  -5.2 °C 29.76in /  1007.7hPa SW 8.1mph /  13km/h 12.0mph /  19.3km/h 9% 0.00in /  0mm 218.0 W/m2
17:23 88.5 °F /  31.4 °C 22.5 °F /  -5.3 °C 29.77in /  1008hPa SSW 6.9mph /  11.1km/h 7.0mph /  11.3km/h 9% 0.00in /  0mm 197.0 W/m2
17:29 88.2 °F /  31.2 °C 22.3 °F /  -5.4 °C 29.77in /  1008hPa SW 4.9mph /  7.9km/h 8.0mph /  12.9km/h 9% 0.00in /  0mm 176.0 W/m2
17:35 88.0 °F /  31.1 °C 22.1 °F /  -5.5 °C 29.77in /  1008hPa WSW 4.9mph /  7.9km/h 7.0mph /  11.3km/h 9% 0.00in /  0mm 160.0 W/m2
17:41 87.4 °F /  30.8 °C 21.7 °F /  -5.7 °C 29.77in /  1008hPa SW 0.9mph /  1.4km/h 9.0mph /  14.5km/h 9% 0.00in /  0mm 141.0 W/m2
17:47 87.3 °F /  30.7 °C 24.1 °F /  -4.4 °C 29.77in /  1008hPa WSW 4.0mph /  6.4km/h 9.0mph /  14.5km/h 10% 0.00in /  0mm 125.0 W/m2
17:53 87.3 °F /  30.7 °C 24.1 °F /  -4.4 °C 29.78in /  1008.4hPa WSW 2.9mph /  4.7km/h 10.0mph /  16.1km/h 10% 0.00in /  0mm 105.0 W/m2
17:59 86.7 °F /  30.4 °C 21.2 °F /  -6 °C 29.78in /  1008.4hPa Calm   2.0mph /  3.2km/h 9% 0.00in /  0mm 88.0 W/m2
18:05 86.4 °F /  30.2 °C 20.8 °F /  -6.2 °C 29.78in /  1008.4hPa WSW 4.0mph /  6.4km/h 12.0mph /  19.3km/h 9% 0.00in /  0mm 49.0 W/m2
18:11 85.6 °F /  29.8 °C 20.3 °F /  -6.5 °C 29.78in /  1008.4hPa SW 2.9mph /  4.7km/h 6.0mph /  9.7km/h 9% 0.00in /  0mm 46.0 W/m2
18:17 85.1 °F /  29.5 °C 19.9 °F /  -6.7 °C 29.78in /  1008.4hPa South 4.9mph /  7.9km/h 12.0mph /  19.3km/h 9% 0.00in /  0mm 30.0 W/m2
18:23 84.7 °F /  29.3 °C 19.6 °F /  -6.9 °C 29.78in /  1008.4hPa SSW 6.0mph /  9.7km/h 9.0mph /  14.5km/h 9% 0.00in /  0mm 21.0 W/m2
18:29 84.4 °F /  29.1 °C 21.9 °F /  -5.6 °C 29.78in /  1008.4hPa SSW 0.9mph /  1.4km/h 10.0mph /  16.1km/h 10% 0.00in /  0mm 16.0 W/m2
18:35 83.8 °F /  28.8 °C 21.4 °F /  -5.9 °C 29.79in /  1008.7hPa SSW 2.9mph /  4.7km/h 6.0mph /  9.7km/h 10% 0.00in /  0mm 11.0 W/m2
18:41 83.5 °F /  28.6 °C 21.2 °F /  -6 °C 29.79in /  1008.7hPa Calm   4.0mph /  6.4km/h 10% 0.00in /  0mm 5.0 W/m2
18:47 82.9 °F /  28.3 °C 20.8 °F /  -6.2 °C 29.80in /  1009hPa Calm   5.0mph /  8km/h 10% 0.00in /  0mm 0.0 W/m2
18:53 82.6 °F /  28.1 °C 20.5 °F /  -6.4 °C 29.80in /  1009hPa Calm   8.0mph /  12.9km/h 10% 0.00in /  0mm 0.0 W/m2
18:59 82.2 °F /  27.9 °C 20.3 °F /  -6.5 °C 29.80in /  1009hPa Calm   6.0mph /  9.7km/h 10% 0.00in /  0mm 0.0 W/m2
19:05 81.9 °F /  27.7 °C 22.3 °F /  -5.4 °C 29.80in /  1009hPa SW 2.9mph /  4.7km/h 5.0mph /  8km/h 11% 0.00in /  0mm 0.0 W/m2
19:11 81.5 °F /  27.5 °C 21.9 °F /  -5.6 °C 29.80in /  1009hPa WSW 2.0mph /  3.2km/h 8.0mph /  12.9km/h 11% 0.00in /  0mm 0.0 W/m2
19:17 81.1 °F /  27.3 °C 21.6 °F /  -5.8 °C 29.80in /  1009hPa SW 0.9mph /  1.4km/h 4.0mph /  6.4km/h 11% 0.00in /  0mm 0.0 W/m2
19:23 80.8 °F /  27.1 °C 21.4 °F /  -5.9 °C 29.80in /  1009hPa South 0.9mph /  1.4km/h 6.0mph /  9.7km/h 11% 0.00in /  0mm 0.0 W/m2
19:29 80.4 °F /  26.9 °C 21.0 °F /  -6.1 °C 29.80in /  1009hPa SSW 2.9mph /  4.7km/h 5.0mph /  8km/h 11% 0.00in /  0mm 0.0 W/m2
19:35 80.2 °F /  26.8 °C 21.0 °F /  -6.1 °C 29.81in /  1009.4hPa Calm   3.0mph /  4.8km/h 11% 0.00in /  0mm 0.0 W/m2
19:41 79.9 °F /  26.6 °C 20.7 °F /  -6.3 °C 29.82in /  1009.7hPa Calm   7.0mph /  11.3km/h 11% 0.00in /  0mm 0.0 W/m2
19:47 79.7 °F /  26.5 °C 18.3 °F /  -7.6 °C 29.82in /  1009.7hPa Calm   10.0mph /  16.1km/h 10% 0.00in /  0mm 0.0 W/m2
19:53 79.3 °F /  26.3 °C 18.0 °F /  -7.8 °C 29.82in /  1009.7hPa Calm   3.0mph /  4.8km/h 10% 0.00in /  0mm 0.0 W/m2
19:59 79.2 °F /  26.2 °C 18.0 °F /  -7.8 °C 29.83in /  1010hPa Calm   3.0mph /  4.8km/h 10% 0.00in /  0mm 0.0 W/m2
20:05 79.0 °F /  26.1 °C 17.8 °F /  -7.9 °C 29.83in /  1010hPa Calm   9.0mph /  14.5km/h 10% 0.00in /  0mm 0.0 W/m2
20:11 78.6 °F /  25.9 °C 17.4 °F /  -8.1 °C 29.83in /  1010hPa SW 0.9mph /  1.4km/h 5.0mph /  8km/h 10% 0.00in /  0mm 0.0 W/m2
20:17 78.4 °F /  25.8 °C 17.4 °F /  -8.1 °C 29.83in /  1010hPa Calm   4.0mph /  6.4km/h 10% 0.00in /  0mm 0.0 W/m2
20:23 78.3 °F /  25.7 °C 17.2 °F /  -8.2 °C 29.83in /  1010hPa Calm   1.0mph /  1.6km/h 10% 0.00in /  0mm 0.0 W/m2
20:29 77.9 °F /  25.5 °C 16.9 °F /  -8.4 °C 29.83in /  1010hPa WNW 2.0mph /  3.2km/h 2.0mph /  3.2km/h 10% 0.00in /  0mm 0.0 W/m2
20:35 77.7 °F /  25.4 °C 16.9 °F /  -8.4 °C 29.84in /  1010.4hPa WSW 2.0mph /  3.2km/h 2.0mph /  3.2km/h 10% 0.00in /  0mm 0.0 W/m2
20:41 77.4 °F /  25.2 °C 16.5 °F /  -8.6 °C 29.84in /  1010.4hPa WSW 4.9mph /  7.9km/h 8.0mph /  12.9km/h 10% 0.00in /  0mm 0.0 W/m2
20:47 77.2 °F /  25.1 °C 16.3 °F /  -8.7 °C 29.84in /  1010.4hPa Calm   1.0mph /  1.6km/h 10% 0.00in /  0mm 0.0 W/m2
20:53 76.8 °F /  24.9 °C 18.3 °F /  -7.6 °C 29.84in /  1010.4hPa Calm     11% 0.00in /  0mm 0.0 W/m2
21:03 75.9 °F /  24.4 °C 17.6 °F /  -8 °C 29.85in /  1010.7hPa Calm     11% 0.00in /  0mm 0.0 W/m2
21:07 75.4 °F /  24.1 °C 19.2 °F /  -7.1 °C 29.85in /  1010.7hPa Calm     12% 0.00in /  0mm 0.0 W/m2
21:13 74.7 °F /  23.7 °C 18.7 °F /  -7.4 °C 29.85in /  1010.7hPa Calm     12% 0.00in /  0mm 0.0 W/m2
21:15 74.5 °F /  23.6 °C 18.5 °F /  -7.5 °C 29.85in /  1010.7hPa Calm     12% 0.00in /  0mm 0.0 W/m2
21:17 74.1 °F /  23.4 °C 18.3 °F /  -7.6 °C 29.85in /  1010.7hPa Calm     12% 0.00in /  0mm 0.0 W/m2
21:19 73.9 °F /  23.3 °C 18.1 °F /  -7.7 °C 29.85in /  1010.7hPa Calm     12% 0.00in /  0mm 0.0 W/m2
21:23 73.6 °F /  23.1 °C 19.8 °F /  -6.8 °C 29.85in /  1010.7hPa Calm     13% 0.00in /  0mm 0.0 W/m2
21:29 72.9 °F /  22.7 °C 19.2 °F /  -7.1 °C 29.86in /  1011.1hPa Calm     13% 0.00in /  0mm 0.0 W/m2
21:31 72.7 °F /  22.6 °C 19.0 °F /  -7.2 °C 29.86in /  1011.1hPa Calm     13% 0.00in /  0mm 0.0 W/m2
21:33 72.3 °F /  22.4 °C 18.7 °F /  -7.4 °C 29.86in /  1011.1hPa Calm     13% 0.00in /  0mm 0.0 W/m2
21:39 71.6 °F /  22 °C 18.1 °F /  -7.7 °C 29.86in /  1011.1hPa Calm     13% 0.00in /  0mm 0.0 W/m2
21:45 71.1 °F /  21.7 °C 17.8 °F /  -7.9 °C 29.86in /  1011.1hPa Calm     13% 0.00in /  0mm 0.0 W/m2
21:51 70.5 °F /  21.4 °C 19.0 °F /  -7.2 °C 29.86in /  1011.1hPa Calm   1.0mph /  1.6km/h 14% 0.00in /  0mm 0.0 W/m2
21:55 70.3 °F /  21.3 °C 18.9 °F /  -7.3 °C 29.86in /  1011.1hPa SSE 2.0mph /  3.2km/h 2.0mph /  3.2km/h 14% 0.00in /  0mm 0.0 W/m2
22:01 70.5 °F /  21.4 °C 17.2 °F /  -8.2 °C 29.86in /  1011.1hPa Calm   3.0mph /  4.8km/h 13% 0.00in /  0mm 0.0 W/m2
22:05 71.1 °F /  21.7 °C 15.8 °F /  -9 °C 29.86in /  1011.1hPa Calm   2.0mph /  3.2km/h 12% 0.00in /  0mm 0.0 W/m2
22:11 71.2 °F /  21.8 °C 16.0 °F /  -8.9 °C 29.86in /  1011.1hPa Calm     12% 0.00in /  0mm 0.0 W/m2
22:13 71.4 °F /  21.9 °C 16.2 °F /  -8.8 °C 29.87in /  1011.4hPa Calm     12% 0.00in /  0mm 0.0 W/m2
22:19 71.8 °F /  22.1 °C 16.5 °F /  -8.6 °C 29.86in /  1011.1hPa Calm     12% 0.00in /  0mm 0.0 W/m2
22:27 71.8 °F /  22.1 °C 16.5 °F /  -8.6 °C 29.87in /  1011.4hPa Calm     12% 0.00in /  0mm 0.0 W/m2
22:39 71.1 °F /  21.7 °C 17.8 °F /  -7.9 °C 29.87in /  1011.4hPa Calm     13% 0.00in /  0mm 0.0 W/m2
22:43 70.9 °F /  21.6 °C 17.6 °F /  -8 °C 29.87in /  1011.4hPa Calm     13% 0.00in /  0mm 0.0 W/m2
22:49 70.3 °F /  21.3 °C 17.2 °F /  -8.2 °C 29.87in /  1011.4hPa Calm     13% 0.00in /  0mm 0.0 W/m2
22:51 70.3 °F /  21.3 °C 17.2 °F /  -8.2 °C 29.87in /  1011.4hPa Calm     13% 0.00in /  0mm 0.0 W/m2
22:53 70.2 °F /  21.2 °C 17.1 °F /  -8.3 °C 29.87in /  1011.4hPa Calm     13% 0.00in /  0mm 0.0 W/m2
22:59 70.0 °F /  21.1 °C 16.9 °F /  -8.4 °C 29.87in /  1011.4hPa Calm     13% 0.00in /  0mm 0.0 W/m2
23:05 70.0 °F /  21.1 °C 16.9 °F /  -8.4 °C 29.87in /  1011.4hPa Calm     13% 0.00in /  0mm 0.0 W/m2
23:11 69.8 °F /  21 °C 18.5 °F /  -7.5 °C 29.87in /  1011.4hPa Calm     14% 0.00in /  0mm 0.0 W/m2
23:15 69.6 °F /  20.9 °C 18.3 °F /  -7.6 °C 29.86in /  1011.1hPa Calm     14% 0.00in /  0mm 0.0 W/m2
23:17 69.4 °F /  20.8 °C 19.8 °F /  -6.8 °C 29.86in /  1011.1hPa Calm     15% 0.00in /  0mm 0.0 W/m2
23:23 69.1 °F /  20.6 °C 19.4 °F /  -7 °C 29.87in /  1011.4hPa Calm     15% 0.00in /  0mm 0.0 W/m2
23:25 68.7 °F /  20.4 °C 19.2 °F /  -7.1 °C 29.86in /  1011.1hPa Calm     15% 0.00in /  0mm 0.0 W/m2
23:31 68.4 °F /  20.2 °C 17.2 °F /  -8.2 °C 29.87in /  1011.4hPa Calm     14% 0.00in /  0mm 0.0 W/m2
23:37 68.0 °F /  20 °C 17.1 °F /  -8.3 °C 29.87in /  1011.4hPa Calm     14% 0.00in /  0mm 0.0 W/m2
23:43 67.6 °F /  19.8 °C 18.3 °F /  -7.6 °C 29.87in /  1011.4hPa Calm     15% 0.00in /  0mm 0.0 W/m2
23:49 67.5 °F /  19.7 °C 18.1 °F /  -7.7 °C 29.87in /  1011.4hPa Calm     15% 0.00in /  0mm 0.0 W/m2
23:55 67.3 °F /  19.6 °C 16.5 °F /  -8.6 °C 29.87in /  1011.4hPa Calm     14% 0.00in /  0mm 0.0 W/m2
Olympia, Windhoek, Namibia
Compliments of Weather Underground - 3.25 mb